Hovedside
METAR-TAF:

METAR-TAF

Lufthavner :

Tammerfors-Birkala lufthavn

Tammerfors, Finland

breddegrad: 61-25N, lengdegrad: 023-35E, høyde over havet: 112 m

Gjeldene værobservasjon

Denne rapporten ble laget for 23 minutter siden, klokken 17:20 UTC
Vind 6 kt fra Nordvest
Temperatur 21°C
Luftfuktighet 40%
Trykk 1027 hPa
Sikt 10 km eller mer
ingen skyer under 1500 m og ingen bygeskyer

METAR: EFTP 261720Z AUTO 32006KT CAVOK 21/07 Q1027

Tid: 20:43 (17:43 UTC)

Varsel

Denne rapporten ble laget for 3 timer og 16 minutter siden, klokken 14:27 UTC
Varsel gyldig fra 26. klokken 15 UTC til 27. klokken 15 UTC
Vind 5 kt fra Nord-nordvest
Sikt 10 km eller mer
ingen skyer under 1500 m og ingen bygeskyer

TAF: EFTP 261427Z 2615/2715 33005KT CAVOK

Værobservasjoner og værvarsel for over 4000 flyplasser (METAR- og TAF-rapporter).

Tilgjengelige stasjoner er representert av de røde og gule prikkene på kartet.

Hold musepekeren over prikken for å se navnet på stasjonen.

Klikk så for å se værobservasjoner og -varsler.

For å forandre kartet kan du klikke på den grønne knappen med svart kryss for å zoome inn, på den grønne knappen med strek for å zoome ut, eller på de grønne pilene for å se tilstøtende kart.


METAR-TAF: